Time;durP1;ratioP1;P1;durP2;ratioP2;P2;SDS_P1;SDS_P2;PMS_P1;PMS_P2;Temp;Humidity;BMP_temperature;BMP_pressure;BME280_temperature;BME280_humidity;BME280_pressure;Samples;Min_cycle;Max_cycle;Signal;HPM_P1;HPM_P2
2022/09/03 00:01:02;;;;;;;2.33;1.00;;;20.40;37.10;;;;;;5010414;28;20052;-57
2022/09/03 00:03:37;;;;;;;1.45;0.82;;;20.40;37.30;;;;;;5019170;28;20498;-60
2022/09/03 00:06:13;;;;;;;1.30;0.65;;;20.30;37.30;;;;;;5020072;28;20064;-59
2022/09/03 00:08:46;;;;;;;1.42;1.00;;;20.30;37.30;;;;;;5020311;28;20053;-59
2022/09/03 00:11:19;;;;;;;1.45;0.98;;;20.30;37.50;;;;;;5016054;28;20046;-59
2022/09/03 00:13:55;;;;;;;2.20;1.00;;;20.30;37.50;;;;;;5025255;28;20053;-58
2022/09/03 00:16:26;;;;;;;1.42;0.80;;;20.20;37.50;;;;;;5019494;28;20061;-58
2022/09/03 00:18:59;;;;;;;1.75;0.90;;;20.20;37.50;;;;;;5023938;28;20064;-59
2022/09/03 00:21:37;;;;;;;2.67;0.80;;;20.20;37.60;;;;;;5018619;28;20486;-58
2022/09/03 00:24:09;;;;;;;2.33;0.90;;;20.20;37.60;;;;;;5021899;28;20099;-55
2022/09/03 00:26:39;;;;;;;2.05;1.00;;;20.10;37.60;;;;;;5022528;28;20249;-59
2022/09/03 00:29:11;;;;;;;2.15;0.73;;;20.10;37.80;;;;;;5023163;28;20061;-59
2022/09/03 00:31:41;;;;;;;3.05;0.90;;;20.00;37.70;;;;;;5017459;28;20045;-59
2022/09/03 00:34:15;;;;;;;1.85;0.80;;;20.00;37.80;;;;;;5024317;28;20409;-58
2022/09/03 00:36:45;;;;;;;1.90;0.90;;;20.00;37.90;;;;;;5023271;28;20061;-59
2022/09/03 00:39:14;;;;;;;1.77;0.90;;;20.00;38.10;;;;;;5021709;28;20495;-59
2022/09/03 00:41:58;;;;;;;6.22;0.88;;;19.90;38.10;;;;;;5019848;28;20053;-56
2022/09/03 00:44:47;;;;;;;1.42;0.90;;;20.00;38.20;;;;;;5021413;28;20056;-59
2022/09/03 00:47:23;;;;;;;1.58;0.75;;;19.90;38.20;;;;;;5022761;28;20061;-59
2022/09/03 00:50:03;;;;;;;2.08;1.00;;;19.90;38.20;;;;;;5015707;28;20412;-59
2022/09/03 00:52:44;;;;;;;1.67;0.98;;;19.90;38.30;;;;;;5024673;28;20398;-58
2022/09/03 00:55:21;;;;;;;1.25;0.70;;;19.90;38.40;;;;;;5022222;28;20440;-59
2022/09/03 00:58:02;;;;;;;1.77;0.82;;;19.90;38.40;;;;;;5022721;28;20045;-52
2022/09/03 01:00:30;;;;;;;0.98;0.75;;;19.80;38.50;;;;;;5015880;28;20046;-51
2022/09/03 01:03:06;;;;;;;2.53;0.93;;;19.80;38.40;;;;;;5023181;28;20057;-47
2022/09/03 01:05:53;;;;;;;1.60;0.82;;;19.80;38.50;;;;;;5023076;28;20053;-48
2022/09/03 01:08:33;;;;;;;1.73;0.80;;;19.80;38.50;;;;;;5024274;28;20061;-51
2022/09/03 01:11:17;;;;;;;2.60;1.05;;;19.80;38.60;;;;;;5018185;28;20413;-55
2022/09/03 01:13:49;;;;;;;1.52;0.65;;;19.80;38.70;;;;;;5025386;28;20065;-47
2022/09/03 01:16:25;;;;;;;1.05;0.73;;;19.80;38.70;;;;;;5021009;28;20064;-49
2022/09/03 01:19:02;;;;;;;1.23;0.80;;;19.70;38.80;;;;;;5022874;28;20087;-47
2022/09/03 01:21:51;;;;;;;1.60;0.80;;;19.70;38.80;;;;;;5011810;28;20050;-53
2022/09/03 01:24:45;;;;;;;0.50;0.50;;;19.60;38.90;;;;;;5021368;28;20485;-47
2022/09/03 01:27:29;;;;;;;1.60;0.80;;;19.60;38.90;;;;;;5020858;28;21226;-45
2022/09/03 01:30:04;;;;;;;1.23;0.87;;;19.60;38.90;;;;;;5014302;28;20671;-47
2022/09/03 01:32:42;;;;;;;2.45;0.90;;;19.60;39.00;;;;;;5022197;28;20072;-47
2022/09/03 01:35:19;;;;;;;1.45;0.80;;;19.60;39.00;;;;;;5018974;28;20053;-48
2022/09/03 01:38:01;;;;;;;1.45;0.65;;;19.60;39.10;;;;;;5017916;28;20068;-51
2022/09/03 01:40:39;;;;;;;1.75;0.80;;;19.60;39.10;;;;;;5012216;28;20481;-46
2022/09/03 01:43:17;;;;;;;2.58;0.70;;;19.50;39.10;;;;;;5022233;28;20080;-45
2022/09/03 01:45:53;;;;;;;1.13;0.82;;;19.50;39.20;;;;;;5020076;28;20433;-48
2022/09/03 01:48:32;;;;;;;0.77;0.70;;;19.50;39.30;;;;;;5018996;28;20053;-48
2022/09/03 01:51:09;;;;;;;0.75;0.60;;;19.50;39.30;;;;;;5018743;28;20057;-47
2022/09/03 01:53:56;;;;;;;0.80;0.50;;;19.40;39.30;;;;;;5020400;28;20066;-51
2022/09/03 01:56:35;;;;;;;1.65;0.80;;;19.40;39.30;;;;;;5021275;28;20057;-47
2022/09/03 01:59:07;;;;;;;1.88;0.93;;;19.40;39.40;;;;;;5019775;28;20057;-49
2022/09/03 02:01:39;;;;;;;1.20;0.70;;;19.40;39.40;;;;;;5016792;28;20053;-51
2022/09/03 02:04:19;;;;;;;0.90;0.70;;;19.40;39.50;;;;;;5018571;28;20056;-50
2022/09/03 02:06:47;;;;;;;0.68;0.50;;;19.40;39.70;;;;;;5023561;28;20049;-52
2022/09/03 02:09:15;;;;;;;4.20;0.80;;;19.40;39.70;;;;;;5019344;28;20057;-48
2022/09/03 02:11:43;;;;;;;2.13;0.68;;;19.40;39.70;;;;;;5014622;28;20057;-45
2022/09/03 02:14:11;;;;;;;1.83;0.85;;;19.30;39.70;;;;;;5020028;28;20494;-52
2022/09/03 02:16:39;;;;;;;1.27;0.75;;;19.30;39.70;;;;;;5016270;28;20045;-50
2022/09/03 02:19:11;;;;;;;1.23;0.68;;;19.30;39.80;;;;;;5023426;28;20060;-46
2022/09/03 02:21:43;;;;;;;0.60;0.57;;;19.30;39.80;;;;;;5015501;28;20057;-45
2022/09/03 02:24:10;;;;;;;0.95;0.60;;;19.30;39.80;;;;;;5016912;28;20053;-46
2022/09/03 02:26:38;;;;;;;1.38;0.60;;;19.30;39.90;;;;;;5023454;28;20536;-46
2022/09/03 02:29:05;;;;;;;4.55;0.75;;;19.30;40.00;;;;;;5019657;28;20058;-47
2022/09/03 02:31:32;;;;;;;1.23;0.75;;;19.30;40.00;;;;;;5014533;28;20409;-49
2022/09/03 02:34:01;;;;;;;0.70;0.50;;;19.30;40.10;;;;;;5022204;28;20416;-48
2022/09/03 02:36:32;;;;;;;2.03;0.77;;;19.30;40.10;;;;;;5020615;28;20410;-46
2022/09/03 02:38:59;;;;;;;0.75;0.60;;;19.30;40.20;;;;;;5023102;28;20650;-49
2022/09/03 02:41:26;;;;;;;2.85;0.90;;;19.30;40.20;;;;;;5016416;28;20524;-46
2022/09/03 02:44:00;;;;;;;1.83;0.90;;;19.30;40.20;;;;;;5018879;28;20062;-50
2022/09/03 02:46:33;;;;;;;1.25;0.55;;;19.30;40.40;;;;;;5019867;28;20053;-46
2022/09/03 02:49:01;;;;;;;1.95;0.80;;;19.20;40.30;;;;;;5020112;28;20509;-51
2022/09/03 02:51:34;;;;;;;1.45;0.60;;;19.30;40.30;;;;;;5013566;28;20052;-48
2022/09/03 02:54:01;;;;;;;6.15;0.75;;;19.20;40.20;;;;;;5019699;28;20075;-52
2022/09/03 02:56:28;;;;;;;4.13;0.70;;;19.30;40.40;;;;;;5023140;28;20057;-54
2022/09/03 02:58:56;;;;;;;1.52;0.68;;;19.20;40.40;;;;;;5019759;28;20045;-49
2022/09/03 03:01:24;;;;;;;1.95;0.70;;;19.20;40.50;;;;;;5015497;28;20053;-47
2022/09/03 03:03:51;;;;;;;2.00;0.80;;;19.20;40.50;;;;;;5019568;28;20123;-45
2022/09/03 03:06:20;;;;;;;0.93;0.60;;;19.20;40.60;;;;;;5022640;28;20057;-49
2022/09/03 03:08:47;;;;;;;0.88;0.55;;;19.20;40.60;;;;;;5019651;28;20054;-48
2022/09/03 03:11:17;;;;;;;0.88;0.52;;;19.20;40.60;;;;;;5008861;28;20053;-49
2022/09/03 03:13:45;;;;;;;1.05;0.60;;;19.20;40.60;;;;;;5014217;28;20057;-45
2022/09/03 03:16:13;;;;;;;1.15;0.80;;;19.20;40.50;;;;;;5011191;28;20064;-52
2022/09/03 03:18:41;;;;;;;0.90;0.70;;;19.20;40.60;;;;;;5018897;28;20064;-50
2022/09/03 03:21:10;;;;;;;2.15;0.80;;;19.20;40.60;;;;;;5013628;28;20068;-44
2022/09/03 03:23:40;;;;;;;3.78;1.05;;;19.20;40.60;;;;;;5020048;28;20417;-52
2022/09/03 03:26:09;;;;;;;1.33;0.65;;;19.20;40.70;;;;;;5018821;28;20445;-50
2022/09/03 03:28:36;;;;;;;0.63;0.60;;;19.20;40.60;;;;;;5016614;28;20056;-50
2022/09/03 03:31:07;;;;;;;1.05;0.63;;;19.20;40.70;;;;;;5014687;28;20057;-52
2022/09/03 03:33:35;;;;;;;1.55;0.70;;;19.20;40.80;;;;;;5022328;28;20058;-48
2022/09/03 03:36:05;;;;;;;0.80;0.52;;;19.20;40.70;;;;;;5016910;28;20132;-47
2022/09/03 03:38:32;;;;;;;0.90;0.60;;;19.20;40.80;;;;;;5021613;28;20124;-46
2022/09/03 03:41:07;;;;;;;1.60;0.70;;;19.20;40.80;;;;;;5021021;28;20056;-49
2022/09/03 03:43:34;;;;;;;2.10;0.68;;;19.10;41.00;;;;;;5021573;28;20398;-49
2022/09/03 03:46:01;;;;;;;0.60;0.47;;;19.20;40.90;;;;;;5017331;28;20058;-49
2022/09/03 03:48:29;;;;;;;1.00;0.60;;;19.10;40.80;;;;;;5019694;28;20493;-51
2022/09/03 03:51:00;;;;;;;1.85;0.80;;;19.10;40.70;;;;;;5018550;28;20049;-51
2022/09/03 03:53:29;;;;;;;3.20;0.70;;;19.10;40.70;;;;;;5018881;28;20137;-50
2022/09/03 03:55:57;;;;;;;1.10;0.70;;;19.10;40.70;;;;;;5018389;28;20058;-49
2022/09/03 03:58:26;;;;;;;1.23;0.77;;;19.10;40.70;;;;;;5021190;28;20062;-47
2022/09/03 04:00:53;;;;;;;1.00;0.60;;;19.20;40.90;;;;;;5016174;28;20060;-48
2022/09/03 04:03:21;;;;;;;1.02;0.70;;;19.20;41.00;;;;;;5018038;28;20593;-45
2022/09/03 04:05:56;;;;;;;0.85;0.55;;;19.20;41.00;;;;;;5018369;28;20057;-47
2022/09/03 04:08:23;;;;;;;0.65;0.50;;;19.20;41.20;;;;;;5010246;28;20921;-46
2022/09/03 04:10:50;;;;;;;1.10;0.70;;;19.20;41.10;;;;;;5012699;28;20053;-46
2022/09/03 04:13:17;;;;;;;3.38;0.90;;;19.20;41.10;;;;;;5021410;28;20060;-50
2022/09/03 04:15:46;;;;;;;2.80;0.70;;;19.20;41.20;;;;;;5017851;28;20409;-47
2022/09/03 04:18:14;;;;;;;0.70;0.50;;;19.20;41.20;;;;;;5005936;28;121898;-50
2022/09/03 04:20:41;;;;;;;1.17;0.77;;;19.30;41.20;;;;;;5018127;28;20045;-51
2022/09/03 04:23:08;;;;;;;0.60;0.60;;;19.20;41.30;;;;;;5017362;28;20049;-47
2022/09/03 04:25:35;;;;;;;2.00;0.65;;;19.30;41.30;;;;;;5019171;28;20049;-47
2022/09/03 04:28:03;;;;;;;0.98;0.60;;;19.20;41.30;;;;;;5010858;28;72146;-48
2022/09/03 04:30:30;;;;;;;0.95;0.63;;;19.20;41.20;;;;;;5012548;28;20057;-49
2022/09/03 04:33:00;;;;;;;0.80;0.60;;;19.30;41.30;;;;;;5021734;28;20049;-47
2022/09/03 04:35:28;;;;;;;6.35;0.98;;;19.20;41.30;;;;;;5018809;28;20743;-48
2022/09/03 04:37:57;;;;;;;2.28;0.90;;;19.30;41.30;;;;;;5022218;28;20058;-49
2022/09/03 04:40:24;;;;;;;1.52;0.63;;;19.30;41.40;;;;;;5016808;28;20080;-46
2022/09/03 04:42:57;;;;;;;0.65;0.63;;;19.30;41.20;;;;;;5015431;28;20045;-49
2022/09/03 04:45:24;;;;;;;1.55;0.80;;;19.30;41.00;;;;;;5019558;28;20088;-45
2022/09/03 04:47:58;;;;;;;4.13;0.80;;;19.30;41.00;;;;;;5017467;28;20053;-49
2022/09/03 04:50:26;;;;;;;1.77;1.40;;;19.30;41.20;;;;;;5007099;28;20602;-47
2022/09/03 04:52:55;;;;;;;1.42;0.85;;;19.30;41.20;;;;;;4997972;28;20050;-51
2022/09/03 04:55:22;;;;;;;2.58;0.70;;;19.30;41.10;;;;;;5014472;28;20057;-46
2022/09/03 04:57:49;;;;;;;2.33;0.90;;;19.30;41.00;;;;;;5018283;28;20057;-48
2022/09/03 05:00:17;;;;;;;2.92;0.80;;;19.30;40.90;;;;;;5008511;28;20058;-46
2022/09/03 05:02:45;;;;;;;0.88;0.50;;;19.40;40.90;;;;;;5015053;28;20057;-48
2022/09/03 05:05:14;;;;;;;1.08;0.80;;;19.40;40.90;;;;;;5012577;28;20057;-49
2022/09/03 05:07:42;;;;;;;1.35;0.43;;;19.40;40.90;;;;;;5021321;28;20060;-48
2022/09/03 05:10:15;;;;;;;1.92;0.60;;;19.40;41.00;;;;;;5007807;28;20139;-52
2022/09/03 05:12:43;;;;;;;1.17;0.70;;;19.40;40.90;;;;;;5021469;28;20397;-46
2022/09/03 05:15:11;;;;;;;2.60;0.70;;;19.40;41.10;;;;;;5022632;28;20060;-47
2022/09/03 05:17:38;;;;;;;1.15;0.55;;;19.40;41.00;;;;;;5020324;28;20057;-47
2022/09/03 05:20:07;;;;;;;2.28;0.80;;;19.50;41.10;;;;;;5014000;28;20405;-47
2022/09/03 05:22:36;;;;;;;5.65;0.70;;;19.50;41.20;;;;;;5005263;28;20517;-51
2022/09/03 05:25:03;;;;;;;3.10;0.95;;;19.50;41.30;;;;;;5012198;28;20060;-47
2022/09/03 05:27:31;;;;;;;1.70;0.70;;;19.50;41.10;;;;;;5012041;28;20053;-52
2022/09/03 05:29:59;;;;;;;0.90;0.65;;;19.50;41.10;;;;;;5014188;28;20116;-50
2022/09/03 05:32:27;;;;;;;1.10;0.60;;;19.50;41.10;;;;;;5020914;28;20053;-49
2022/09/03 05:34:55;;;;;;;0.90;0.70;;;19.60;41.20;;;;;;5022669;28;20057;-44
2022/09/03 05:37:23;;;;;;;7.13;0.73;;;19.60;41.10;;;;;;5017052;28;20053;-53
2022/09/03 05:39:52;;;;;;;1.17;0.68;;;19.60;41.00;;;;;;5006959;28;20065;-47
2022/09/03 05:42:20;;;;;;;1.38;0.88;;;19.60;41.00;;;;;;5013556;28;20065;-48
2022/09/03 05:44:48;;;;;;;11.00;6.32;;;19.60;41.00;;;;;;5020000;28;20053;-49
2022/09/03 05:47:15;;;;;;;3.63;2.60;;;19.70;41.00;;;;;;5019942;28;20064;-50
2022/09/03 05:49:42;;;;;;;2.78;1.00;;;19.70;41.00;;;;;;5014334;28;20410;-49
2022/09/03 05:52:10;;;;;;;1.55;0.57;;;19.70;41.20;;;;;;5018709;28;20064;-52
2022/09/03 05:54:38;;;;;;;1.42;0.80;;;19.70;41.20;;;;;;5012655;28;20057;-45
2022/09/03 05:57:06;;;;;;;8.88;0.70;;;19.80;41.10;;;;;;5021723;28;20084;-46
2022/09/03 05:59:33;;;;;;;0.98;0.73;;;19.80;41.10;;;;;;5009238;28;20057;-53
2022/09/03 06:02:01;;;;;;;0.70;0.60;;;19.80;41.10;;;;;;5002052;28;20064;-52
2022/09/03 06:04:28;;;;;;;1.90;0.80;;;19.80;41.10;;;;;;5016151;28;20041;-48
2022/09/03 06:06:56;;;;;;;0.98;0.70;;;19.90;41.20;;;;;;5019256;28;20057;-48
2022/09/03 06:09:23;;;;;;;0.98;0.70;;;19.90;41.10;;;;;;5008996;28;20092;-46
2022/09/03 06:11:50;;;;;;;0.60;0.55;;;19.90;41.00;;;;;;5011981;28;20061;-49
2022/09/03 06:14:19;;;;;;;1.48;0.77;;;19.90;41.00;;;;;;5004860;28;20054;-45
2022/09/03 06:16:48;;;;;;;1.95;0.70;;;19.90;40.90;;;;;;5017579;28;20409;-49
2022/09/03 06:19:16;;;;;;;1.17;0.75;;;20.00;41.00;;;;;;5017486;28;20068;-50
2022/09/03 06:21:44;;;;;;;2.50;0.85;;;20.00;40.90;;;;;;5016728;28;20493;-49
2022/09/03 06:24:13;;;;;;;1.85;0.60;;;20.00;40.90;;;;;;5018809;28;20057;-47
2022/09/03 06:26:40;;;;;;;5.25;0.77;;;20.00;40.90;;;;;;5019266;28;20494;-46
2022/09/03 06:29:08;;;;;;;2.65;0.68;;;20.00;40.90;;;;;;5012172;28;20054;-51
2022/09/03 06:31:36;;;;;;;3.25;0.75;;;20.10;41.00;;;;;;5015802;28;20061;-45
2022/09/03 06:34:04;;;;;;;1.33;0.73;;;20.00;40.80;;;;;;5019919;28;20413;-48
2022/09/03 06:36:32;;;;;;;1.48;0.93;;;20.10;40.80;;;;;;5008162;28;20053;-50
2022/09/03 06:39:00;;;;;;;1.40;0.70;;;20.10;40.90;;;;;;5021131;28;20053;-47
2022/09/03 06:41:31;;;;;;;1.23;0.90;;;20.10;40.90;;;;;;5011106;28;20414;-51
2022/09/03 06:44:02;;;;;;;1.20;0.80;;;20.10;41.00;;;;;;5017747;28;20045;-48
2022/09/03 06:46:30;;;;;;;4.00;1.00;;;20.10;40.90;;;;;;5023468;28;20494;-48
2022/09/03 06:48:59;;;;;;;0.95;0.85;;;20.10;40.80;;;;;;5016663;28;20057;-48
2022/09/03 06:51:28;;;;;;;1.33;0.90;;;20.10;41.00;;;;;;5014909;28;20541;-49
2022/09/03 06:54:00;;;;;;;2.28;0.70;;;20.10;41.10;;;;;;5022565;28;20064;-50
2022/09/03 06:56:27;;;;;;;1.85;0.70;;;20.10;41.00;;;;;;5021336;28;20057;-47
2022/09/03 06:58:56;;;;;;;1.38;0.70;;;20.10;41.10;;;;;;5020539;28;20485;-49
2022/09/03 07:01:25;;;;;;;1.27;0.68;;;20.10;41.10;;;;;;5013615;28;20049;-49
2022/09/03 07:03:55;;;;;;;2.60;0.90;;;20.10;41.10;;;;;;5015804;28;20417;-49
2022/09/03 07:06:26;;;;;;;1.50;0.75;;;20.10;41.20;;;;;;5020706;28;20045;-49
2022/09/03 07:08:56;;;;;;;1.52;0.90;;;20.10;41.10;;;;;;5016540;28;20057;-50
2022/09/03 07:11:26;;;;;;;3.00;0.60;;;20.20;41.10;;;;;;5012465;28;20402;-43
2022/09/03 07:13:54;;;;;;;3.95;0.90;;;20.20;41.20;;;;;;5015255;28;20519;-48
2022/09/03 07:16:23;;;;;;;1.55;0.80;;;20.20;41.30;;;;;;5022646;28;20062;-49
2022/09/03 07:18:51;;;;;;;1.48;0.90;;;20.20;41.30;;;;;;5020955;28;20065;-48
2022/09/03 07:21:20;;;;;;;1.45;0.75;;;20.20;41.40;;;;;;5016155;28;20049;-48
2022/09/03 07:23:50;;;;;;;1.05;0.68;;;20.20;41.60;;;;;;5009531;28;20057;-51
2022/09/03 07:26:20;;;;;;;0.77;0.70;;;20.30;41.60;;;;;;5015180;28;20061;-48
2022/09/03 07:28:47;;;;;;;1.80;0.80;;;20.30;41.50;;;;;;5011323;28;20071;-50
2022/09/03 07:31:18;;;;;;;1.40;0.77;;;20.30;41.40;;;;;;5002427;28;20064;-48
2022/09/03 07:33:45;;;;;;;3.17;0.93;;;20.30;41.30;;;;;;5012921;28;20417;-46
2022/09/03 07:36:15;;;;;;;3.15;1.27;;;20.40;41.30;;;;;;5010693;28;20053;-52
2022/09/03 07:38:44;;;;;;;2.80;1.00;;;20.40;41.50;;;;;;5006723;28;20057;-46
2022/09/03 07:41:14;;;;;;;1.00;0.77;;;20.50;41.40;;;;;;5011524;28;20049;-49
2022/09/03 07:43:44;;;;;;;1.77;0.70;;;20.50;41.30;;;;;;5018831;28;20049;-47
2022/09/03 07:46:12;;;;;;;1.98;0.75;;;20.50;41.30;;;;;;5019277;28;20057;-47
2022/09/03 07:48:40;;;;;;;1.30;0.70;;;20.50;41.50;;;;;;5015823;28;20053;-45
2022/09/03 07:51:07;;;;;;;5.72;0.75;;;20.60;41.50;;;;;;5001990;28;20058;-53
2022/09/03 07:53:35;;;;;;;1.63;0.90;;;20.60;41.40;;;;;;5009490;28;20065;-48
2022/09/03 07:56:04;;;;;;;2.05;1.02;;;20.60;41.40;;;;;;5018891;28;20498;-48
2022/09/03 07:58:35;;;;;;;2.92;1.10;;;20.70;41.60;;;;;;5017085;28;20057;-54
2022/09/03 08:01:07;;;;;;;1.70;0.95;;;20.70;41.50;;;;;;5005204;28;20531;-50
2022/09/03 08:03:34;;;;;;;2.67;0.70;;;20.70;41.40;;;;;;5015289;28;20053;-45
2022/09/03 08:06:04;;;;;;;1.90;0.80;;;20.80;41.50;;;;;;5014097;28;20053;-51
2022/09/03 08:08:32;;;;;;;1.92;1.17;;;20.80;41.80;;;;;;5015522;28;20061;-50
2022/09/03 08:11:09;;;;;;;2.03;0.95;;;20.80;42.70;;;;;;5007887;28;20436;-52
2022/09/03 08:13:39;;;;;;;22.05;11.27;;;20.90;43.00;;;;;;5021982;28;20501;-48
2022/09/03 08:16:08;;;;;;;10.88;5.72;;;20.90;43.00;;;;;;5014637;28;20049;-51
2022/09/03 08:18:38;;;;;;;4.72;2.20;;;20.90;43.20;;;;;;5017383;28;20084;-50
2022/09/03 08:21:07;;;;;;;3.40;1.70;;;20.90;43.30;;;;;;5009480;28;20068;-47
2022/09/03 08:23:37;;;;;;;2.10;1.30;;;21.00;43.90;;;;;;5017657;28;20050;-51
2022/09/03 08:26:05;;;;;;;1.67;1.20;;;20.90;44.00;;;;;;5017579;28;20050;-46
2022/09/03 08:28:33;;;;;;;1.48;0.90;;;21.00;44.10;;;;;;5002923;28;20064;-47
2022/09/03 08:31:10;;;;;;;1.13;0.82;;;21.00;44.20;;;;;;5013479;28;20053;-53
2022/09/03 08:33:37;;;;;;;2.13;0.90;;;21.00;44.20;;;;;;5022357;28;20053;-50
2022/09/03 08:36:05;;;;;;;1.40;0.98;;;21.00;44.10;;;;;;5016855;28;20052;-46
2022/09/03 08:38:33;;;;;;;1.67;0.88;;;21.00;44.10;;;;;;5018456;28;21157;-49
2022/09/03 08:41:08;;;;;;;4.90;0.88;;;21.00;44.00;;;;;;5010851;28;20049;-49
2022/09/03 08:43:58;;;;;;;0.65;0.60;;;21.10;43.90;;;;;;5017091;28;20053;-44
2022/09/03 08:46:47;;;;;;;1.00;0.73;;;21.10;43.90;;;;;;5015758;28;20050;-51
2022/09/03 08:49:22;;;;;;;3.00;0.90;;;21.10;44.20;;;;;;5018292;28;20051;-48
2022/09/03 08:51:52;;;;;;;1.55;1.08;;;21.10;44.00;;;;;;5015056;28;20549;-52
2022/09/03 08:54:22;;;;;;;1.30;0.90;;;21.20;44.00;;;;;;5009147;28;20061;-50
2022/09/03 09:28:46;;;;;;;1.85;0.80;;;21.40;43.20;;;;;;4995951;28;20030;-47
2022/09/03 09:31:17;;;;;;;2.30;1.00;;;21.40;43.10;;;;;;5007196;28;20053;-47
2022/09/03 09:33:45;;;;;;;1.42;0.93;;;21.40;43.30;;;;;;5023753;28;20409;-47
2022/09/03 09:36:15;;;;;;;1.52;0.88;;;21.50;43.20;;;;;;5023651;28;20064;-49
2022/09/03 09:38:44;;;;;;;3.40;1.30;;;21.50;43.00;;;;;;5023584;28;20064;-51
2022/09/03 09:41:13;;;;;;;1.67;1.08;;;21.50;43.30;;;;;;5016163;28;20072;-50
2022/09/03 09:43:40;;;;;;;2.67;1.30;;;21.60;43.20;;;;;;5022540;28;20061;-48
2022/09/03 09:46:12;;;;;;;1.27;0.75;;;21.60;43.20;;;;;;5018021;28;20417;-45
2022/09/03 09:48:48;;;;;;;1.67;0.93;;;21.70;43.00;;;;;;5022857;28;20076;-49
2022/09/03 09:51:20;;;;;;;1.15;1.00;;;21.80;42.80;;;;;;5015489;28;20068;-49
2022/09/03 09:53:47;;;;;;;2.10;1.02;;;21.80;43.00;;;;;;5023509;28;20064;-46
2022/09/03 09:56:22;;;;;;;3.50;1.40;;;21.90;42.90;;;;;;5023226;28;20061;-48
2022/09/03 09:58:51;;;;;;;2.45;1.10;;;21.90;43.00;;;;;;5016528;28;20577;-44
2022/09/03 10:01:22;;;;;;;4.38;1.30;;;21.90;43.10;;;;;;5012844;28;20053;-51
2022/09/03 10:03:53;;;;;;;2.85;1.05;;;22.00;43.30;;;;;;5023101;28;20057;-48
2022/09/03 10:09:10;;;;;;;2.10;1.10;;;22.10;43.60;;;;;;5017257;28;20068;-51
2022/09/03 10:11:40;;;;;;;1.52;1.00;;;22.20;43.70;;;;;;5011497;28;20418;-44
2022/09/03 10:14:17;;;;;;;3.55;1.30;;;22.20;43.90;;;;;;5019815;28;20057;-51
2022/09/03 10:16:48;;;;;;;2.80;1.30;;;22.30;44.00;;;;;;5016804;28;20064;-50
2022/09/03 10:19:29;;;;;;;1.63;1.00;;;22.30;43.80;;;;;;5021429;28;20058;-48
2022/09/03 10:22:05;;;;;;;2.70;1.38;;;22.40;43.70;;;;;;5019469;28;20057;-50
2022/09/03 10:24:51;;;;;;;3.85;1.73;;;22.40;43.60;;;;;;5022703;28;20061;-51
2022/09/03 10:27:21;;;;;;;3.53;1.30;;;22.50;43.80;;;;;;5019258;28;20413;-48
2022/09/03 10:29:48;;;;;;;3.10;1.40;;;22.60;43.80;;;;;;5013404;28;20053;-49
2022/09/03 10:32:29;;;;;;;1.70;1.35;;;22.60;44.10;;;;;;5015774;28;20050;-45
2022/09/03 10:35:09;;;;;;;2.08;1.20;;;22.60;44.20;;;;;;5019352;28;20053;-46
2022/09/03 10:37:43;;;;;;;2.88;1.50;;;22.70;44.10;;;;;;5018451;28;20049;-47
2022/09/03 10:40:29;;;;;;;1.40;1.10;;;22.80;44.10;;;;;;5010945;28;20058;-44
2022/09/03 10:43:14;;;;;;;2.63;1.48;;;22.90;44.30;;;;;;5015810;28;20064;-49
2022/09/03 10:45:52;;;;;;;1.73;1.30;;;22.90;44.00;;;;;;5019335;28;20056;-50
2022/09/03 10:48:40;;;;;;;2.08;1.33;;;23.00;43.80;;;;;;5020087;28;20057;-46
2022/09/03 10:51:19;;;;;;;2.20;1.30;;;23.10;43.80;;;;;;5015778;28;20045;-49
2022/09/03 10:53:59;;;;;;;2.30;1.50;;;23.20;43.70;;;;;;5021043;28;20060;-49
2022/09/03 10:56:32;;;;;;;2.17;1.45;;;23.20;43.80;;;;;;5020149;28;20064;-49
2022/09/03 10:59:14;;;;;;;3.03;1.63;;;23.20;43.90;;;;;;5020040;28;20497;-47
2022/09/03 11:01:55;;;;;;;3.15;1.77;;;23.40;44.00;;;;;;5011633;28;20084;-45
2022/09/03 11:04:29;;;;;;;3.70;1.50;;;23.40;44.10;;;;;;5010794;28;20053;-54
2022/09/03 11:07:03;;;;;;;1.80;1.52;;;23.50;44.10;;;;;;5017665;28;20049;-47
2022/09/03 11:09:33;;;;;;;;;;;23.50;44.20;;;;;;5017566;28;20440;-56
2022/09/03 11:12:06;;;;;;;2.22;1.50;;;23.50;43.90;;;;;;5019360;28;19929;-49
2022/09/03 11:14:38;;;;;;;2.95;1.90;;;23.60;43.70;;;;;;5015193;28;20049;-47
2022/09/03 11:17:10;;;;;;;2.30;1.40;;;23.60;43.30;;;;;;5007287;28;20054;-48
2022/09/03 11:19:47;;;;;;;4.10;1.60;;;23.60;43.30;;;;;;5011340;28;20068;-51
2022/09/03 11:22:17;;;;;;;2.60;1.30;;;23.60;43.80;;;;;;5020484;28;20497;-49
2022/09/03 11:24:49;;;;;;;2.17;1.50;;;23.60;43.70;;;;;;5021189;28;20049;-52
2022/09/03 11:27:35;;;;;;;5.20;1.63;;;23.60;43.40;;;;;;5022456;28;20045;-52
2022/09/03 11:30:07;;;;;;;5.63;1.55;;;23.60;43.40;;;;;;5013437;28;20417;-53
2022/09/03 11:32:48;;;;;;;2.25;1.58;;;23.70;43.50;;;;;;5018583;28;20397;-48
2022/09/03 11:35:24;;;;;;;2.38;1.50;;;23.70;43.60;;;;;;5020466;28;20489;-48
2022/09/03 11:37:58;;;;;;;2.03;1.33;;;23.70;43.60;;;;;;5022561;28;20069;-56
2022/09/03 11:40:32;;;;;;;2.20;1.45;;;23.80;43.70;;;;;;5018487;28;20056;-47
2022/09/03 11:43:10;;;;;;;3.28;1.63;;;23.80;43.80;;;;;;5017096;28;20060;-49
2022/09/03 11:45:38;;;;;;;3.75;1.60;;;23.80;43.60;;;;;;5014972;28;20056;-48
2022/09/03 11:48:28;;;;;;;2.38;1.48;;;23.80;43.60;;;;;;5022077;28;20072;-49
2022/09/03 11:50:56;;;;;;;2.08;1.33;;;23.80;43.70;;;;;;5016781;28;20056;-46
2022/09/03 11:53:33;;;;;;;2.00;1.30;;;23.90;43.50;;;;;;5021709;28;20516;-49
2022/09/03 11:56:13;;;;;;;1.33;1.23;;;23.90;43.40;;;;;;5018690;28;20052;-46
2022/09/03 11:58:41;;;;;;;2.10;1.58;;;24.00;43.30;;;;;;5020043;28;20059;-53
2022/09/03 12:01:11;;;;;;;2.13;1.40;;;24.00;43.20;;;;;;5016747;28;20045;-48
2022/09/03 12:03:43;;;;;;;2.88;1.35;;;24.00;43.30;;;;;;5021470;28;20053;-47
2022/09/03 12:06:35;;;;;;;1.67;1.50;;;24.00;43.30;;;;;;5021421;28;20056;-50
2022/09/03 12:09:24;;;;;;;2.30;1.58;;;24.10;43.30;;;;;;5018609;28;20049;-50
2022/09/03 12:11:59;;;;;;;4.28;1.75;;;24.10;43.40;;;;;;5017382;28;20062;-51
2022/09/03 12:14:36;;;;;;;3.53;1.70;;;24.10;43.30;;;;;;5020341;28;20084;-50
2022/09/03 12:17:25;;;;;;;2.17;1.65;;;24.10;43.20;;;;;;5021827;28;20517;-54
2022/09/03 12:19:54;;;;;;;2.53;1.38;;;24.20;43.70;;;;;;5019058;28;20061;-52
2022/09/03 12:22:23;;;;;;;1.80;1.30;;;24.20;43.20;;;;;;5020620;28;20068;-46
2022/09/03 12:24:52;;;;;;;4.63;1.58;;;24.20;43.70;;;;;;5019968;28;20612;-48
2022/09/03 12:27:23;;;;;;;1.80;1.40;;;24.20;43.20;;;;;;5022160;28;20049;-45
2022/09/03 12:29:58;;;;;;;3.17;1.30;;;24.30;43.30;;;;;;5017383;28;20631;-52
2022/09/03 12:32:31;;;;;;;1.77;1.20;;;24.30;43.30;;;;;;5021108;28;20056;-50
2022/09/03 12:34:58;;;;;;;1.95;1.60;;;24.40;43.30;;;;;;5021579;28;20045;-53
2022/09/03 12:37:26;;;;;;;3.75;1.60;;;24.40;43.30;;;;;;5021848;28;20058;-44
2022/09/03 12:39:56;;;;;;;3.45;1.75;;;24.40;43.30;;;;;;5015352;28;20053;-46
2022/09/03 12:42:26;;;;;;;2.42;1.60;;;24.40;43.30;;;;;;5021231;28;20053;-50
2022/09/03 12:44:54;;;;;;;2.33;1.50;;;24.50;43.40;;;;;;5021659;28;20057;-49
2022/09/03 12:47:23;;;;;;;2.08;1.38;;;24.50;43.40;;;;;;5021385;28;20057;-46
2022/09/03 12:49:52;;;;;;;3.38;1.27;;;24.50;43.40;;;;;;5016987;28;20515;-52
2022/09/03 12:52:24;;;;;;;3.65;1.70;;;24.60;43.40;;;;;;5020354;28;20057;-51
2022/09/03 12:54:57;;;;;;;3.65;1.40;;;24.60;43.40;;;;;;5020589;28;20065;-48
2022/09/03 12:57:29;;;;;;;2.13;1.37;;;24.60;43.40;;;;;;5020530;28;20050;-47
2022/09/03 13:00:01;;;;;;;3.95;1.73;;;24.70;43.40;;;;;;5017288;28;20054;-54
2022/09/03 13:02:32;;;;;;;1.60;1.20;;;24.70;43.40;;;;;;5022145;28;20412;-48
2022/09/03 13:05:00;;;;;;;2.00;1.65;;;24.70;43.50;;;;;;5019673;28;20489;-48
2022/09/03 13:07:32;;;;;;;3.00;1.35;;;24.80;43.70;;;;;;5014874;28;20501;-48
2022/09/03 13:10:05;;;;;;;2.25;1.60;;;24.80;43.50;;;;;;5013461;28;20057;-47
2022/09/03 13:12:41;;;;;;;2.55;1.67;;;24.80;43.40;;;;;;5020564;28;20057;-47
2022/09/03 13:15:12;;;;;;;2.67;1.60;;;24.80;43.50;;;;;;5017975;28;20489;-49
2022/09/03 13:18:01;;;;;;;1.77;1.60;;;24.90;43.70;;;;;;5020655;28;20064;-47
2022/09/03 13:20:40;;;;;;;2.03;1.60;;;24.90;43.70;;;;;;5016022;28;20060;-48
2022/09/03 13:23:30;;;;;;;2.17;1.83;;;24.90;43.70;;;;;;5018270;28;20049;-50
2022/09/03 13:26:08;;;;;;;2.40;1.60;;;24.90;43.60;;;;;;5016907;28;20053;-49
2022/09/03 13:28:49;;;;;;;3.42;2.00;;;25.00;43.50;;;;;;5021120;28;20053;-45
2022/09/03 13:31:28;;;;;;;3.15;1.70;;;25.00;43.50;;;;;;5015946;28;20060;-46
2022/09/03 13:34:02;;;;;;;2.53;1.50;;;25.00;43.70;;;;;;5020475;28;20045;-54
2022/09/03 13:36:31;;;;;;;;;;;25.00;43.60;;;;;;5023944;28;20041;-50
2022/09/03 13:39:04;;;;;;;1.48;1.25;;;25.10;43.50;;;;;;5022631;28;19933;-48
2022/09/03 13:41:40;;;;;;;1.73;1.38;;;25.10;43.50;;;;;;5011457;28;20077;-52
2022/09/03 13:44:11;;;;;;;1.80;1.48;;;25.10;43.60;;;;;;5015734;28;20497;-48
2022/09/03 13:46:45;;;;;;;2.08;1.55;;;25.20;43.70;;;;;;5014143;28;20061;-51